sensor_id;sensor_type;location;lat;lon;timestamp;pressure;altitude;pressure_sealevel;temperature;humidity
38038;BME280;23843;51.320;12.340;2023-12-20T00:01:04;99964.00;;;7.30;84.54
38038;BME280;23843;51.320;12.340;2023-12-20T00:03:30;99964.84;;;7.31;83.82
38038;BME280;23843;51.320;12.340;2023-12-20T00:05:56;99965.06;;;7.29;83.96
38038;BME280;23843;51.320;12.340;2023-12-20T00:08:22;99961.47;;;7.29;84.02
38038;BME280;23843;51.320;12.340;2023-12-20T00:10:48;99960.63;;;7.28;84.55
38038;BME280;23843;51.320;12.340;2023-12-20T00:13:13;99962.53;;;7.28;83.76
38038;BME280;23843;51.320;12.340;2023-12-20T00:15:39;99950.63;;;7.27;84.18
38038;BME280;23843;51.320;12.340;2023-12-20T00:18:05;99951.69;;;7.26;84.57
38038;BME280;23843;51.320;12.340;2023-12-20T00:20:30;99953.84;;;7.24;83.89
38038;BME280;23843;51.320;12.340;2023-12-20T00:22:57;99951.91;;;7.25;84.03
38038;BME280;23843;51.320;12.340;2023-12-20T00:25:24;99946.59;;;7.23;84.65
38038;BME280;23843;51.320;12.340;2023-12-20T00:27:49;99944.94;;;7.22;84.67
38038;BME280;23843;51.320;12.340;2023-12-20T00:30:15;99942.19;;;7.22;83.92
38038;BME280;23843;51.320;12.340;2023-12-20T00:32:40;99943.25;;;7.21;84.55
38038;BME280;23843;51.320;12.340;2023-12-20T00:35:06;99939.00;;;7.19;83.80
38038;BME280;23843;51.320;12.340;2023-12-20T00:37:32;99932.63;;;7.18;84.29
38038;BME280;23843;51.320;12.340;2023-12-20T00:39:57;99931.19;;;7.16;83.79
38038;BME280;23843;51.320;12.340;2023-12-20T00:42:24;99931.19;;;7.16;83.85
38038;BME280;23843;51.320;12.340;2023-12-20T00:44:49;99930.09;;;7.17;84.55
38038;BME280;23843;51.320;12.340;2023-12-20T00:47:15;99924.81;;;7.15;84.13
38038;BME280;23843;51.320;12.340;2023-12-20T00:49:40;99929.50;;;7.15;84.61
38038;BME280;23843;51.320;12.340;2023-12-20T00:52:06;99928.00;;;7.12;83.96
38038;BME280;23843;51.320;12.340;2023-12-20T00:54:31;99930.78;;;7.12;84.04
38038;BME280;23843;51.320;12.340;2023-12-20T00:56:57;99921.63;;;7.12;83.57
38038;BME280;23843;51.320;12.340;2023-12-20T00:59:24;99916.97;;;7.12;84.27
38038;BME280;23843;51.320;12.340;2023-12-20T01:01:49;99915.91;;;7.13;84.48
38038;BME280;23843;51.320;12.340;2023-12-20T01:04:15;99922.47;;;7.12;84.89
38038;BME280;23843;51.320;12.340;2023-12-20T01:06:40;99920.56;;;7.13;84.14
38038;BME280;23843;51.320;12.340;2023-12-20T01:09:06;99917.81;;;7.13;84.26
38038;BME280;23843;51.320;12.340;2023-12-20T01:11:31;99913.13;;;7.13;83.98
38038;BME280;23843;51.320;12.340;2023-12-20T01:13:57;99920.56;;;7.13;84.25
38038;BME280;23843;51.320;12.340;2023-12-20T01:16:24;99925.47;;;7.11;84.68
38038;BME280;23843;51.320;12.340;2023-12-20T01:18:49;99926.53;;;7.10;84.13
38038;BME280;23843;51.320;12.340;2023-12-20T01:21:15;99919.31;;;7.09;84.45
38038;BME280;23843;51.320;12.340;2023-12-20T01:23:40;99912.13;;;7.08;84.21
38038;BME280;23843;51.320;12.340;2023-12-20T01:26:06;99901.06;;;7.08;85.03
38038;BME280;23843;51.320;12.340;2023-12-20T01:28:32;99906.81;;;7.06;84.17
38038;BME280;23843;51.320;12.340;2023-12-20T01:30:57;99904.91;;;7.07;84.28
38038;BME280;23843;51.320;12.340;2023-12-20T01:33:24;99905.75;;;7.07;84.54
38038;BME280;23843;51.320;12.340;2023-12-20T01:35:49;99896.63;;;7.07;84.88
38038;BME280;23843;51.320;12.340;2023-12-20T01:38:15;99887.47;;;7.06;84.38
38038;BME280;23843;51.320;12.340;2023-12-20T01:40:41;99888.53;;;7.05;84.33
38038;BME280;23843;51.320;12.340;2023-12-20T01:43:08;99887.47;;;7.06;85.44
38038;BME280;23843;51.320;12.340;2023-12-20T01:45:33;99890.03;;;7.08;84.70
38038;BME280;23843;51.320;12.340;2023-12-20T01:47:59;99884.50;;;7.08;84.35
38038;BME280;23843;51.320;12.340;2023-12-20T01:50:27;99890.03;;;7.08;85.40
38038;BME280;23843;51.320;12.340;2023-12-20T01:52:54;99882.81;;;7.07;84.50
38038;BME280;23843;51.320;12.340;2023-12-20T01:55:20;99885.56;;;7.07;85.29
38038;BME280;23843;51.320;12.340;2023-12-20T01:57:46;99891.94;;;7.07;84.71
38038;BME280;23843;51.320;12.340;2023-12-20T02:00:13;99890.03;;;7.08;84.46
38038;BME280;23843;51.320;12.340;2023-12-20T02:02:40;99887.00;;;7.09;85.11
38038;BME280;23843;51.320;12.340;2023-12-20T02:05:06;99892.53;;;7.09;85.01
38038;BME280;23843;51.320;12.340;2023-12-20T02:07:33;99882.34;;;7.10;84.29
38038;BME280;23843;51.320;12.340;2023-12-20T02:09:59;99882.34;;;7.10;84.09
38038;BME280;23843;51.320;12.340;2023-12-20T02:12:24;99874.06;;;7.10;84.83
38038;BME280;23843;51.320;12.340;2023-12-20T02:14:50;99874.06;;;7.10;84.32
38038;BME280;23843;51.320;12.340;2023-12-20T02:17:15;99859.16;;;7.11;84.06
38038;BME280;23843;51.320;12.340;2023-12-20T02:19:41;99860.50;;;7.08;83.92
38038;BME280;23843;51.320;12.340;2023-12-20T02:22:09;99865.16;;;7.08;85.04
38038;BME280;23843;51.320;12.340;2023-12-20T02:24:35;99863.25;;;7.08;85.09
38038;BME280;23843;51.320;12.340;2023-12-20T02:27:00;99863.25;;;7.08;84.32
38038;BME280;23843;51.320;12.340;2023-12-20T02:29:26;99849.44;;;7.08;84.55
38038;BME280;23843;51.320;12.340;2023-12-20T02:31:51;99854.13;;;7.08;84.54
38038;BME280;23843;51.320;12.340;2023-12-20T02:34:17;99860.72;;;7.07;84.36
38038;BME280;23843;51.320;12.340;2023-12-20T02:36:42;99866.22;;;7.07;84.45
38038;BME280;23843;51.320;12.340;2023-12-20T02:39:09;99861.56;;;7.07;84.13
38038;BME280;23843;51.320;12.340;2023-12-20T02:41:35;99852.19;;;7.08;84.40
38038;BME280;23843;51.320;12.340;2023-12-20T02:44:01;99859.63;;;7.08;85.04
38038;BME280;23843;51.320;12.340;2023-12-20T02:46:27;99867.69;;;7.09;85.44
38038;BME280;23843;51.320;12.340;2023-12-20T02:48:52;99865.75;;;7.10;84.44
38038;BME280;23843;51.320;12.340;2023-12-20T02:51:18;99865.16;;;7.08;84.98
38038;BME280;23843;51.320;12.340;2023-12-20T02:53:43;99860.72;;;7.07;84.59
38038;BME280;23843;51.320;12.340;2023-12-20T02:56:10;99851.56;;;7.06;84.93
38038;BME280;23843;51.320;12.340;2023-12-20T02:58:36;99855.19;;;7.07;84.28
38038;BME280;23843;51.320;12.340;2023-12-20T03:01:01;99846.28;;;7.04;84.76
38038;BME280;23843;51.320;12.340;2023-12-20T03:03:27;99845.41;;;7.04;85.00
38038;BME280;23843;51.320;12.340;2023-12-20T03:05:52;99841.81;;;7.03;84.63
38038;BME280;23843;51.320;12.340;2023-12-20T03:08:18;99835.44;;;7.03;84.89
38038;BME280;23843;51.320;12.340;2023-12-20T03:10:43;99832.91;;;7.01;84.04
38038;BME280;23843;51.320;12.340;2023-12-20T03:13:10;99836.75;;;7.00;84.08
38038;BME280;23843;51.320;12.340;2023-12-20T03:15:35;99841.44;;;7.00;84.02
38038;BME280;23843;51.320;12.340;2023-12-20T03:18:01;99837.59;;;7.01;84.29
38038;BME280;23843;51.320;12.340;2023-12-20T03:20:27;99833.75;;;7.02;84.42
38038;BME280;23843;51.320;12.340;2023-12-20T03:22:52;99839.28;;;7.02;84.48
38038;BME280;23843;51.320;12.340;2023-12-20T03:25:18;99840.13;;;7.02;84.16
38038;BME280;23843;51.320;12.340;2023-12-20T03:27:43;99836.28;;;7.03;84.72
38038;BME280;23843;51.320;12.340;2023-12-20T03:30:10;99830.75;;;7.03;84.46
38038;BME280;23843;51.320;12.340;2023-12-20T03:32:36;99831.63;;;7.04;84.91
38038;BME280;23843;51.320;12.340;2023-12-20T03:35:02;99834.38;;;7.04;84.86
38038;BME280;23843;51.320;12.340;2023-12-20T03:37:28;99831.41;;;7.06;85.23
38038;BME280;23843;51.320;12.340;2023-12-20T03:39:53;99835.00;;;7.06;84.54
38038;BME280;23843;51.320;12.340;2023-12-20T03:42:19;99838.63;;;7.07;84.59
38038;BME280;23843;51.320;12.340;2023-12-20T03:44:44;99839.47;;;7.07;85.10
38038;BME280;23843;51.320;12.340;2023-12-20T03:47:11;99832.88;;;7.08;84.16
38038;BME280;23843;51.320;12.340;2023-12-20T03:49:37;99836.69;;;7.07;84.45
38038;BME280;23843;51.320;12.340;2023-12-20T03:52:03;99832.03;;;7.08;84.84
38038;BME280;23843;51.320;12.340;2023-12-20T03:54:28;99838.41;;;7.08;84.46
38038;BME280;23843;51.320;12.340;2023-12-20T03:56:54;99835.84;;;7.07;85.28
38038;BME280;23843;51.320;12.340;2023-12-20T03:59:19;99840.06;;;7.09;84.23
38038;BME280;23843;51.320;12.340;2023-12-20T04:01:45;99841.97;;;7.09;84.68
38038;BME280;23843;51.320;12.340;2023-12-20T04:04:13;99841.16;;;7.08;84.84
38038;BME280;23843;51.320;12.340;2023-12-20T04:06:38;99844.72;;;7.09;84.55
38038;BME280;23843;51.320;12.340;2023-12-20T04:09:04;99847.28;;;7.10;84.13
38038;BME280;23843;51.320;12.340;2023-12-20T04:11:29;99845.34;;;7.11;84.46
38038;BME280;23843;51.320;12.340;2023-12-20T04:13:55;99846.00;;;7.13;84.52
38038;BME280;23843;51.320;12.340;2023-12-20T04:16:20;99839.63;;;7.12;84.72
38038;BME280;23843;51.320;12.340;2023-12-20T04:18:46;99848.75;;;7.13;85.20
38038;BME280;23843;51.320;12.340;2023-12-20T04:21:13;99846.84;;;7.13;84.63
38038;BME280;23843;51.320;12.340;2023-12-20T04:23:38;99857.66;;;7.15;84.82
38038;BME280;23843;51.320;12.340;2023-12-20T04:26:04;99859.59;;;7.14;85.37
38038;BME280;23843;51.320;12.340;2023-12-20T04:28:29;99859.59;;;7.14;84.90
38038;BME280;23843;51.320;12.340;2023-12-20T04:30:55;99856.81;;;7.14;84.54
38038;BME280;23843;51.320;12.340;2023-12-20T04:33:20;99855.75;;;7.15;84.78
38038;BME280;23843;51.320;12.340;2023-12-20T04:35:46;99849.38;;;7.15;85.21
38038;BME280;23843;51.320;12.340;2023-12-20T04:38:13;99843.00;;;7.14;85.03
38038;BME280;23843;51.320;12.340;2023-12-20T04:40:38;99848.53;;;7.14;84.82
38038;BME280;23843;51.320;12.340;2023-12-20T04:43:04;99840.47;;;7.13;84.49
38038;BME280;23843;51.320;12.340;2023-12-20T04:45:29;99838.56;;;7.13;85.16
38038;BME280;23843;51.320;12.340;2023-12-20T04:47:55;99837.72;;;7.13;84.70
38038;BME280;23843;51.320;12.340;2023-12-20T04:50:21;99841.31;;;7.13;84.45
38038;BME280;23843;51.320;12.340;2023-12-20T04:52:46;99848.53;;;7.14;85.06
38038;BME280;23843;51.320;12.340;2023-12-20T04:55:13;99845.16;;;7.12;84.68
38038;BME280;23843;51.320;12.340;2023-12-20T04:57:39;99840.25;;;7.14;85.23
38038;BME280;23843;51.320;12.340;2023-12-20T05:00:06;99853.00;;;7.15;84.96
38038;BME280;23843;51.320;12.340;2023-12-20T05:02:31;99843.59;;;7.16;84.95
38038;BME280;23843;51.320;12.340;2023-12-20T05:04:57;99848.06;;;7.17;84.88
38038;BME280;23843;51.320;12.340;2023-12-20T05:07:22;99853.59;;;7.17;84.43
38038;BME280;23843;51.320;12.340;2023-12-20T05:09:48;99864.63;;;7.17;85.16
38038;BME280;23843;51.320;12.340;2023-12-20T05:12:14;99868.25;;;7.18;85.60
38038;BME280;23843;51.320;12.340;2023-12-20T05:14:40;99860.19;;;7.16;84.88
38038;BME280;23843;51.320;12.340;2023-12-20T05:17:05;99856.34;;;7.17;85.31
38038;BME280;23843;51.320;12.340;2023-12-20T05:19:31;99868.25;;;7.18;84.62
38038;BME280;23843;51.320;12.340;2023-12-20T05:21:56;99860.81;;;7.18;85.41
38038;BME280;23843;51.320;12.340;2023-12-20T05:24:22;99871.63;;;7.20;85.59
38038;BME280;23843;51.320;12.340;2023-12-20T05:26:47;99871.41;;;7.21;85.01
38038;BME280;23843;51.320;12.340;2023-12-20T05:29:14;99871.41;;;7.21;84.86
38038;BME280;23843;51.320;12.340;2023-12-20T05:31:40;99878.84;;;7.21;85.49
38038;BME280;23843;51.320;12.340;2023-12-20T05:34:05;99888.22;;;7.20;85.31
38038;BME280;23843;51.320;12.340;2023-12-20T05:36:31;99876.09;;;7.21;85.10
38038;BME280;23843;51.320;12.340;2023-12-20T05:38:56;99877.78;;;7.22;85.43
38038;BME280;23843;51.320;12.340;2023-12-20T05:41:22;99877.53;;;7.23;85.10
38038;BME280;23843;51.320;12.340;2023-12-20T05:43:47;99883.69;;;7.25;85.44
38038;BME280;23843;51.320;12.340;2023-12-20T05:46:14;99892.63;;;7.27;84.83
38038;BME280;23843;51.320;12.340;2023-12-20T05:48:39;99903.66;;;7.27;85.23
38038;BME280;23843;51.320;12.340;2023-12-20T05:51:05;99906.44;;;7.27;84.78
38038;BME280;23843;51.320;12.340;2023-12-20T05:53:30;99912.16;;;7.26;84.93
38038;BME280;23843;51.320;12.340;2023-12-20T05:55:56;99910.25;;;7.26;85.25
38038;BME280;23843;51.320;12.340;2023-12-20T05:58:21;99904.94;;;7.25;85.11
38038;BME280;23843;51.320;12.340;2023-12-20T06:00:47;99913.25;;;7.25;85.53
38038;BME280;23843;51.320;12.340;2023-12-20T06:03:14;99912.63;;;7.23;85.17
38038;BME280;23843;51.320;12.340;2023-12-20T06:05:39;99914.78;;;7.21;85.21
38038;BME280;23843;51.320;12.340;2023-12-20T06:08:05;99911.59;;;7.17;85.42
38038;BME280;23843;51.320;12.340;2023-12-20T06:10:31;99911.84;;;7.16;85.55
38038;BME280;23843;51.320;12.340;2023-12-20T06:12:56;99905.69;;;7.14;85.35
38038;BME280;23843;51.320;12.340;2023-12-20T06:15:22;99906.75;;;7.13;85.85
38038;BME280;23843;51.320;12.340;2023-12-20T06:17:47;99905.91;;;7.12;85.26
38038;BME280;23843;51.320;12.340;2023-12-20T06:20:14;99910.38;;;7.13;85.94
38038;BME280;23843;51.320;12.340;2023-12-20T06:22:40;99900.16;;;7.14;85.25
38038;BME280;23843;51.320;12.340;2023-12-20T06:25:06;99908.88;;;7.11;85.10
38038;BME280;23843;51.320;12.340;2023-12-20T06:27:31;99908.56;;;7.00;85.52
38038;BME280;23843;51.320;12.340;2023-12-20T06:29:57;99919.44;;;6.89;85.26
38038;BME280;23843;51.320;12.340;2023-12-20T06:32:22;99922.09;;;6.77;85.93
38038;BME280;23843;51.320;12.340;2023-12-20T06:34:48;99929.78;;;6.69;85.52
38038;BME280;23843;51.320;12.340;2023-12-20T06:37:15;99932.16;;;6.58;85.93
38038;BME280;23843;51.320;12.340;2023-12-20T06:39:40;99932.41;;;6.50;86.33
38038;BME280;23843;51.320;12.340;2023-12-20T06:42:06;99936.28;;;6.43;86.38
38038;BME280;23843;51.320;12.340;2023-12-20T06:44:32;99928.66;;;6.38;86.46
38038;BME280;23843;51.320;12.340;2023-12-20T06:46:57;99924.41;;;6.36;86.31
38038;BME280;23843;51.320;12.340;2023-12-20T06:49:23;99919.97;;;6.35;86.23
38038;BME280;23843;51.320;12.340;2023-12-20T06:51:48;99915.91;;;6.37;85.58
38038;BME280;23843;51.320;12.340;2023-12-20T06:54:15;99919.09;;;6.41;85.90
38038;BME280;23843;51.320;12.340;2023-12-20T06:56:41;99921.19;;;6.45;86.21
38038;BME280;23843;51.320;12.340;2023-12-20T06:59:06;99926.50;;;6.47;85.06
38038;BME280;23843;51.320;12.340;2023-12-20T07:01:32;99918.22;;;6.47;86.06
38038;BME280;23843;51.320;12.340;2023-12-20T07:03:57;99916.72;;;6.44;85.93
38038;BME280;23843;51.320;12.340;2023-12-20T07:06:23;99917.78;;;6.43;85.85
38038;BME280;23843;51.320;12.340;2023-12-20T07:08:48;99907.22;;;6.40;85.77
38038;BME280;23843;51.320;12.340;2023-12-20T07:11:15;99901.28;;;6.37;86.25
38038;BME280;23843;51.320;12.340;2023-12-20T07:13:41;99907.47;;;6.32;85.30
38038;BME280;23843;51.320;12.340;2023-12-20T07:16:06;99897.94;;;6.28;85.73
38038;BME280;23843;51.320;12.340;2023-12-20T07:18:32;99898.38;;;6.25;86.04
38038;BME280;23843;51.320;12.340;2023-12-20T07:20:57;99904.31;;;6.22;86.26
38038;BME280;23843;51.320;12.340;2023-12-20T07:23:23;99907.31;;;6.20;85.44
38038;BME280;23843;51.320;12.340;2023-12-20T07:25:48;99921.31;;;6.19;85.75
38038;BME280;23843;51.320;12.340;2023-12-20T07:28:15;99912.81;;;6.20;86.42
38038;BME280;23843;51.320;12.340;2023-12-20T07:30:40;99927.66;;;6.26;85.84
38038;BME280;23843;51.320;12.340;2023-12-20T07:33:06;99933.13;;;6.33;85.70
38038;BME280;23843;51.320;12.340;2023-12-20T07:35:32;99940.31;;;6.40;85.57
38038;BME280;23843;51.320;12.340;2023-12-20T07:37:57;99943.25;;;6.45;85.63
38038;BME280;23843;51.320;12.340;2023-12-20T07:40:23;99942.63;;;6.50;86.03
38038;BME280;23843;51.320;12.340;2023-12-20T07:42:48;99940.03;;;6.55;85.41
38038;BME280;23843;51.320;12.340;2023-12-20T07:45:15;99936.81;;;6.58;85.65
38038;BME280;23843;51.320;12.340;2023-12-20T07:47:41;99941.91;;;6.61;84.87
38038;BME280;23843;51.320;12.340;2023-12-20T07:50:06;99947.84;;;6.64;85.88
38038;BME280;23843;51.320;12.340;2023-12-20T07:52:32;99944.81;;;6.73;85.41
38038;BME280;23843;51.320;12.340;2023-12-20T07:54:57;99942.88;;;6.80;85.86
38038;BME280;23843;51.320;12.340;2023-12-20T07:57:23;99943.91;;;6.85;85.99
38038;BME280;23843;51.320;12.340;2023-12-20T07:59:49;99948.13;;;6.88;85.33
38038;BME280;23843;51.320;12.340;2023-12-20T08:02:16;99937.50;;;6.91;85.53
38038;BME280;23843;51.320;12.340;2023-12-20T08:04:41;99930.91;;;6.92;84.98
38038;BME280;23843;51.320;12.340;2023-12-20T08:07:07;99937.03;;;6.94;85.11
38038;BME280;23843;51.320;12.340;2023-12-20T08:09:32;99929.38;;;6.96;84.79
38038;BME280;23843;51.320;12.340;2023-12-20T08:11:58;99925.56;;;6.97;84.91
38038;BME280;23843;51.320;12.340;2023-12-20T08:14:23;99925.56;;;6.97;85.40
38038;BME280;23843;51.320;12.340;2023-12-20T08:16:49;99929.38;;;6.96;85.08
38038;BME280;23843;51.320;12.340;2023-12-20T08:19:15;99934.06;;;6.96;85.73
38038;BME280;23843;51.320;12.340;2023-12-20T08:21:41;99943.19;;;6.96;84.41
38038;BME280;23843;51.320;12.340;2023-12-20T08:24:07;99945.53;;;6.99;84.85
38038;BME280;23843;51.320;12.340;2023-12-20T08:26:33;99944.41;;;7.07;85.07
38038;BME280;23843;51.320;12.340;2023-12-20T08:28:59;99950.09;;;7.12;84.87
38038;BME280;23843;51.320;12.340;2023-12-20T08:31:24;99937.94;;;7.20;85.39
38038;BME280;23843;51.320;12.340;2023-12-20T08:33:50;99947.03;;;7.27;84.88
38038;BME280;23843;51.320;12.340;2023-12-20T08:36:16;99938.97;;;7.50;84.86
38038;BME280;23843;51.320;12.340;2023-12-20T08:38:42;99938.50;;;7.78;84.72
38038;BME280;23843;51.320;12.340;2023-12-20T08:41:07;99929.91;;;8.04;84.66
38038;BME280;23843;51.320;12.340;2023-12-20T08:43:34;99938.84;;;8.25;83.91
38038;BME280;23843;51.320;12.340;2023-12-20T08:46:00;99930.13;;;8.46;83.86
38038;BME280;23843;51.320;12.340;2023-12-20T08:48:25;99923.91;;;8.62;83.43
38038;BME280;23843;51.320;12.340;2023-12-20T08:50:51;99919.47;;;8.61;83.08
38038;BME280;23843;51.320;12.340;2023-12-20T08:53:18;99916.81;;;8.54;83.03
38038;BME280;23843;51.320;12.340;2023-12-20T08:55:43;99928.88;;;8.42;82.44
38038;BME280;23843;51.320;12.340;2023-12-20T08:58:09;99925.38;;;8.28;83.19
38038;BME280;23843;51.320;12.340;2023-12-20T09:00:35;99927.25;;;8.16;83.41
38038;BME280;23843;51.320;12.340;2023-12-20T09:03:01;99922.94;;;8.02;83.26
38038;BME280;23843;51.320;12.340;2023-12-20T09:05:26;99924.94;;;7.95;83.56
38038;BME280;23843;51.320;12.340;2023-12-20T09:07:52;99926.63;;;7.96;83.47
38038;BME280;23843;51.320;12.340;2023-12-20T09:10:19;99940.38;;;8.02;83.95
38038;BME280;23843;51.320;12.340;2023-12-20T09:12:44;99922.16;;;8.13;83.96
38038;BME280;23843;51.320;12.340;2023-12-20T09:15:10;99926.25;;;8.29;83.42
38038;BME280;23843;51.320;12.340;2023-12-20T09:17:35;99915.03;;;8.42;83.39
38038;BME280;23843;51.320;12.340;2023-12-20T09:20:01;99912.09;;;8.55;83.37
38038;BME280;23843;51.320;12.340;2023-12-20T09:22:26;99910.31;;;8.61;83.02
38038;BME280;23843;51.320;12.340;2023-12-20T09:24:52;99909.94;;;8.57;82.96
38038;BME280;23843;51.320;12.340;2023-12-20T09:27:19;99909.56;;;8.53;83.02
38038;BME280;23843;51.320;12.340;2023-12-20T09:29:44;99907.03;;;8.52;82.74
38038;BME280;23843;51.320;12.340;2023-12-20T09:32:10;99902.78;;;8.49;83.37
38038;BME280;23843;51.320;12.340;2023-12-20T09:34:35;99897.34;;;8.43;83.14
38038;BME280;23843;51.320;12.340;2023-12-20T09:37:01;99905.50;;;8.38;82.96
38038;BME280;23843;51.320;12.340;2023-12-20T09:39:26;99911.72;;;8.33;82.70
38038;BME280;23843;51.320;12.340;2023-12-20T09:42:00;99904.75;;;8.31;83.33
38038;BME280;23843;51.320;12.340;2023-12-20T09:44:27;99913.06;;;8.31;83.04
38038;BME280;23843;51.320;12.340;2023-12-20T09:46:54;99900.91;;;8.32;83.32
38038;BME280;23843;51.320;12.340;2023-12-20T09:49:20;99892.13;;;8.35;82.99
38038;BME280;23843;51.320;12.340;2023-12-20T09:51:46;99902.97;;;8.36;83.11
38038;BME280;23843;51.320;12.340;2023-12-20T09:54:13;99883.38;;;8.38;83.29
38038;BME280;23843;51.320;12.340;2023-12-20T09:56:39;99889.53;;;8.40;83.32
38038;BME280;23843;51.320;12.340;2023-12-20T09:59:04;99880.59;;;8.38;83.00
38038;BME280;23843;51.320;12.340;2023-12-20T10:01:32;99879.66;;;8.44;82.93
38038;BME280;23843;51.320;12.340;2023-12-20T10:04:00;99878.28;;;8.53;82.44
38038;BME280;23843;51.320;12.340;2023-12-20T10:06:26;99880.56;;;8.56;82.79
38038;BME280;23843;51.320;12.340;2023-12-20T10:08:51;99872.41;;;8.61;82.50
38038;BME280;23843;51.320;12.340;2023-12-20T10:11:18;99879.38;;;8.64;82.47
38038;BME280;23843;51.320;12.340;2023-12-20T10:13:44;99850.38;;;8.66;82.59
38038;BME280;23843;51.320;12.340;2023-12-20T10:16:09;99857.66;;;8.79;82.61
38038;BME280;23843;51.320;12.340;2023-12-20T10:18:36;99857.81;;;8.95;82.71
38038;BME280;23843;51.320;12.340;2023-12-20T10:21:02;99860.13;;;9.10;82.01
38038;BME280;23843;51.320;12.340;2023-12-20T10:23:27;99843.28;;;9.23;82.04
38038;BME280;23843;51.320;12.340;2023-12-20T10:25:56;99849.78;;;9.29;81.42
38038;BME280;23843;51.320;12.340;2023-12-20T10:28:22;99850.28;;;9.26;81.33
38038;BME280;23843;51.320;12.340;2023-12-20T10:30:47;99845.44;;;9.21;81.25
38038;BME280;23843;51.320;12.340;2023-12-20T10:33:12;99841.72;;;9.16;81.46
38038;BME280;23843;51.320;12.340;2023-12-20T10:35:39;99848.22;;;9.10;81.94
38038;BME280;23843;51.320;12.340;2023-12-20T10:38:06;99844.72;;;9.14;81.48
38038;BME280;23843;51.320;12.340;2023-12-20T10:40:34;99842.94;;;9.20;81.54
38038;BME280;23843;51.320;12.340;2023-12-20T10:43:00;99837.13;;;9.21;81.54
38038;BME280;23843;51.320;12.340;2023-12-20T10:45:27;99839.91;;;9.21;81.40
38038;BME280;23843;51.320;12.340;2023-12-20T10:47:52;99831.59;;;9.21;81.26
38038;BME280;23843;51.320;12.340;2023-12-20T10:50:19;99822.94;;;9.18;80.93
38038;BME280;23843;51.320;12.340;2023-12-20T10:52:46;99815.19;;;9.08;81.26
38038;BME280;23843;51.320;12.340;2023-12-20T10:55:12;99816.16;;;9.02;81.23
38038;BME280;23843;51.320;12.340;2023-12-20T10:57:38;99808.06;;;9.01;81.15
38038;BME280;23843;51.320;12.340;2023-12-20T11:00:06;99813.38;;;9.02;81.43
38038;BME280;23843;51.320;12.340;2023-12-20T11:02:36;99814.22;;;9.03;81.10
38038;BME280;23843;51.320;12.340;2023-12-20T11:05:07;99804.00;;;9.03;81.88
38038;BME280;23843;51.320;12.340;2023-12-20T11:07:39;99814.00;;;9.04;81.50
38038;BME280;23843;51.320;12.340;2023-12-20T11:10:15;99806.66;;;9.10;81.50
38038;BME280;23843;51.320;12.340;2023-12-20T11:12:48;99806.75;;;9.15;81.07
38038;BME280;23843;51.320;12.340;2023-12-20T11:15:16;99796.66;;;9.20;80.93
38038;BME280;23843;51.320;12.340;2023-12-20T11:17:44;99807.88;;;9.25;80.70
38038;BME280;23843;51.320;12.340;2023-12-20T11:20:10;99799.06;;;9.28;80.90
38038;BME280;23843;51.320;12.340;2023-12-20T11:22:36;99804.13;;;9.31;80.53
38038;BME280;23843;51.320;12.340;2023-12-20T11:25:04;99793.41;;;9.35;80.54
38038;BME280;23843;51.320;12.340;2023-12-20T11:27:31;99808.09;;;9.35;80.21
38038;BME280;23843;51.320;12.340;2023-12-20T11:29:58;99802.81;;;9.34;80.45
38038;BME280;23843;51.320;12.340;2023-12-20T11:32:29;99788.69;;;9.35;80.74
38038;BME280;23843;51.320;12.340;2023-12-20T11:34:56;99794.00;;;9.37;80.27
38038;BME280;23843;51.320;12.340;2023-12-20T11:37:21;99785.56;;;9.32;79.94
38038;BME280;23843;51.320;12.340;2023-12-20T11:39:54;99783.78;;;9.26;80.25
38038;BME280;23843;51.320;12.340;2023-12-20T11:42:20;99779.19;;;9.20;80.21
38038;BME280;23843;51.320;12.340;2023-12-20T11:44:47;99776.78;;;9.12;80.10
38038;BME280;23843;51.320;12.340;2023-12-20T11:47:13;99779.41;;;9.07;80.20
38038;BME280;23843;51.320;12.340;2023-12-20T11:49:39;99763.75;;;9.01;80.11
38038;BME280;23843;51.320;12.340;2023-12-20T11:52:04;99759.56;;;8.98;80.35
38038;BME280;23843;51.320;12.340;2023-12-20T11:54:30;99745.09;;;8.96;80.54
38038;BME280;23843;51.320;12.340;2023-12-20T11:56:56;99735.09;;;8.95;80.59
38038;BME280;23843;51.320;12.340;2023-12-20T11:59:21;99739.78;;;8.94;80.63
38038;BME280;23843;51.320;12.340;2023-12-20T12:01:51;99726.16;;;8.93;80.69
38038;BME280;23843;51.320;12.340;2023-12-20T12:04:17;99718.09;;;8.91;80.19
38038;BME280;23843;51.320;12.340;2023-12-20T12:06:42;99718.94;;;8.92;80.48
38038;BME280;23843;51.320;12.340;2023-12-20T12:09:08;99710.88;;;8.90;80.10
38038;BME280;23843;51.320;12.340;2023-12-20T12:11:33;99699.06;;;8.83;80.30
38038;BME280;23843;51.320;12.340;2023-12-20T12:13:59;99704.72;;;8.77;80.08
38038;BME280;23843;51.320;12.340;2023-12-20T12:16:25;99710.38;;;8.70;80.15
38038;BME280;23843;51.320;12.340;2023-12-20T12:18:58;99706.63;;;8.65;80.64
38038;BME280;23843;51.320;12.340;2023-12-20T12:21:24;99706.28;;;8.61;79.76
38038;BME280;23843;51.320;12.340;2023-12-20T12:23:49;99702.28;;;8.57;80.35
38038;BME280;23843;51.320;12.340;2023-12-20T12:26:15;99706.63;;;8.53;79.99
38038;BME280;23843;51.320;12.340;2023-12-20T12:28:41;99698.44;;;8.46;80.27
38038;BME280;23843;51.320;12.340;2023-12-20T12:31:07;99700.38;;;8.46;80.06
38038;BME280;23843;51.320;12.340;2023-12-20T12:33:33;99707.72;;;8.52;80.36
38038;BME280;23843;51.320;12.340;2023-12-20T12:36:00;99699.75;;;8.55;80.03
38038;BME280;23843;51.320;12.340;2023-12-20T12:38:26;99678.22;;;8.57;80.22
38038;BME280;23843;51.320;12.340;2023-12-20T12:40:52;99691.34;;;8.62;79.79
38038;BME280;23843;51.320;12.340;2023-12-20T12:43:17;99688.47;;;8.69;80.29
38038;BME280;23843;51.320;12.340;2023-12-20T12:45:43;99694.38;;;8.72;80.02
38038;BME280;23843;51.320;12.340;2023-12-20T12:48:08;99692.81;;;8.76;80.04
38038;BME280;23843;51.320;12.340;2023-12-20T12:50:34;99694.47;;;8.77;80.05
38038;BME280;23843;51.320;12.340;2023-12-20T12:53:01;99693.78;;;8.82;80.19